• Join FlightAware (Why Join?)
  • Login
  • US Flag 
01:45PM EDT


 

Airport Tracker/Info


-or-


 

Live Flight TrackerFlight Track Log ✈ UAL256 ✈ 04-May-2013 ✈ KMCO - KIAD

Flight Track Log - Related Links

Times and Time Zones

All times are in EDT time to prevent confusion due to time zone crossing. See the UAL256 flight status page for this flight to view local times or setup timezone preferences in your user account.

Time Position Orientation Groundspeed Altitude Reporting Facility
EDT Latitude Longitude Course Direction KTS MPH feet Rate Location/Type
08:56AM 28.4000 -81.3000 355° North 176 203 800  Level Orlando TRACON
08:56AM 28.3833 -81.2833 139° Southeast 175 201 2,400 2,220 Climbing Orlando TRACON
08:57AM 28.3333 -81.2667 164° South 250 288 4,200 2,340 Climbing Orlando TRACON
08:58AM 28.6464 -81.3333 North  Level FlightAware Approximate
08:59AM 28.7631 -81.3422 354° North  Level FlightAware Approximate
08:59AM 28.3661 -81.1869 65° Northeast 309 356 8,400  Level Jacksonville Center
09:00AM 28.8796 -81.3546 355° North  Level FlightAware Approximate
09:00AM 28.4478 -81.2092 347° North 279 321 10,900  Level Jacksonville Center
09:01AM 28.9962 -81.3663 355° North  Level FlightAware Approximate
09:01AM 28.5400 -81.2361 346° North 302 348 13,200  Level Jacksonville Center
09:02AM 28.6383 -81.2628 347° North 333 383 16,000 2,700 Climbing Jacksonville Center
09:03AM 28.7408 -81.2919 346° North 360 414 18,600 2,400 Climbing Jacksonville Center
09:04AM 28.8456 -81.3211 346° North 376 433 20,900 2,100 Climbing Jacksonville Center
09:05AM 28.9567 -81.3525 346° North 393 452 22,800 1,860 Climbing Jacksonville Center
09:06AM 29.0739 -81.3744 351° North 406 467 24,700 1,500 Climbing Jacksonville Center
09:07AM 29.1850 -81.4108 344° North 412 474 25,900 600 Climbing Jacksonville Center
09:08AM 29.3044 -81.4708 336° Northwest 420 483 26,000  Climbing Jacksonville Center
09:09AM 29.4136 -81.5264 336° Northwest 425 489 26,000 600 Level Jacksonville Center
09:10AM 29.5228 -81.5822 336° Northwest 425 489 27,200 1,380 Climbing Jacksonville Center
09:11AM 29.6319 -81.6358 337° Northwest 425 489 28,800 1,560 Climbing Jacksonville Center
09:12AM 29.7453 -81.6894 338° Northwest 425 489 30,400 1,800 Climbing Jacksonville Center
09:13AM 29.8644 -81.7167 349° North 425 489 32,400 1,620 Climbing Jacksonville Center
09:14AM 29.9872 -81.6792 15° North 418 481 33,700 1,140 Climbing Jacksonville Center
09:15AM 30.1036 -81.6225 23° Northeast 431 496 34,700 600 Climbing Jacksonville Center
09:16AM 30.2158 -81.5681 23° Northeast 449 517 35,000 120 Climbing Jacksonville Center
09:17AM 30.3406 -81.5086 22° Northeast 460 529 35,000  Level Jacksonville Center
09:18AM 30.4650 -81.4539 21° North 470 541 35,000  Level Jacksonville Center
09:19AM 30.5897 -81.3964 22° Northeast 475 547 35,000  Level Jacksonville Center
09:20AM 30.7144 -81.3414 21° North 475 547 35,000  Level Jacksonville Center
09:21AM 30.8408 -81.2811 22° Northeast 475 547 35,000  Level Jacksonville Center
09:22AM 30.9656 -81.2258 21° North 475 547 35,000  Level Jacksonville Center
09:23AM 31.0900 -81.1700 21° North 475 547 35,000 360 Level Jacksonville Center
09:24AM 31.2144 -81.1097 22° Northeast 475 547 35,800 960 Climbing Jacksonville Center
09:25AM 31.3533 -81.0436 22° Northeast 475 547 37,000 600 Climbing Jacksonville Center
09:26AM 31.4736 -80.9878 22° Northeast 474 545 37,000  Level Jacksonville Center
09:27AM 31.5878 -80.9367 21° North 474 545 37,000  Level Jacksonville Center
09:28AM 31.7244 -80.8703 22° Northeast 474 545 37,000  Level Jacksonville Center
09:29AM 31.8508 -80.8111 22° Northeast 474 545 37,000  Level Jacksonville Center
09:30AM 31.9669 -80.7597 21° North 489 563 37,000  Level Jacksonville Center
09:31AM 32.1078 -80.6925 22° Northeast 489 563 37,000  Level Jacksonville Center
09:32AM 32.2236 -80.6358 22° Northeast 489 563 37,000  Level Jacksonville Center
09:33AM 32.3500 -80.5761 22° Northeast 489 563 37,000 -60 Level Jacksonville Center
09:34AM 32.4742 -80.5164 22° Northeast 489 563 36,900  Descending Jacksonville Center
09:35AM 32.6003 -80.4561 22° Northeast 489 563 37,000  Climbing Jacksonville Center
09:36AM 32.7264 -80.3961 22° Northeast 489 563 36,900  Descending Jacksonville Center
09:37AM 32.8753 -80.3228 22° Northeast 489 563 37,000  Climbing Jacksonville Center
09:38AM 33.0136 -80.2567 22° Northeast 505 581 37,000  Level Jacksonville Center
09:39AM 33.1461 -80.1933 22° Northeast 498 573 37,000  Level Jacksonville Center
09:40AM 33.2742 -80.1325 22° Northeast 497 572 37,000  Level Jacksonville Center
09:41AM 33.4000 -80.0711 22° Northeast 492 566 37,000  Level Jacksonville Center
09:42AM 33.5258 -80.0100 22° Northeast 492 566 37,000  Level Jacksonville Center
09:43AM 33.6517 -79.9458 23° Northeast 492 566 37,000  Level Jacksonville Center
09:44AM 33.7775 -79.8817 23° Northeast 492 566 37,000 -60 Level Jacksonville Center
09:45AM 33.9033 -79.8200 22° Northeast 492 566 36,900  Descending Jacksonville Center
09:46AM 34.0292 -79.7603 21° North 492 566 37,000  Climbing Jacksonville Center
09:47AM 34.1569 -79.6956 23° Northeast 492 566 36,900  Descending Jacksonville Center
09:49AM 34.3936 -79.5708 23° Northeast 466 536 37,000  Climbing Washington Center
09:50AM 34.5147 -79.5061 24° Northeast 466 536 37,000  Level Washington Center
09:51AM 34.6356 -79.4414 24° Northeast 466 536 37,000  Level Washington Center
09:52AM 34.7586 -79.3789 23° Northeast 466 536 37,000  Level Washington Center
09:53AM 34.8775 -79.3136 24° Northeast 466 536 37,000  Level Washington Center
09:54AM 34.9964 -79.2481 24° Northeast 466 536 37,000  Level Washington Center
09:55AM 35.1150 -79.1875 23° Northeast 466 536 37,000 -240 Level Washington Center
09:56AM 35.2339 -79.1214 24° Northeast 466 536 36,600 -780 Descending Washington Center
09:57AM 35.3528 -79.0581 23° Northeast 461 531 35,500 -1,200 Descending Washington Center
09:58AM 35.4714 -78.9942 24° Northeast 461 531 34,200 -1,320 Descending Washington Center
09:59AM 35.5900 -78.9303 24° Northeast 461 531 32,900 -1,260 Descending Washington Center
10:00AM 35.7214 -78.8592 24° Northeast 461 531 31,800 -960 Descending Washington Center
10:01AM 35.8378 -78.7922 25° Northeast 461 531 31,000 -420 Descending Washington Center
10:02AM 35.9564 -78.7278 24° Northeast 461 531 31,000  Level Washington Center
10:03AM 36.0728 -78.6628 24° Northeast 461 531 31,000 -780 Level Washington Center
10:04AM 36.1894 -78.5956 25° Northeast 461 531 29,500 -1,860 Descending Washington Center
10:05AM 36.3078 -78.5303 24° Northeast 456 525 27,300 -1,320 Descending Washington Center
10:06AM 36.4200 -78.4650 25° Northeast 451 519 27,000 -180 Descending Washington Center
10:07AM 36.5319 -78.4017 24° Northeast 441 507 27,000  Level Washington Center
10:08AM 36.6442 -78.3358 25° Northeast 441 507 27,000  Level Washington Center
10:09AM 36.7561 -78.2750 24° Northeast 441 507 27,000  Level Washington Center
10:10AM 36.8661 -78.2089 26° Northeast 436 502 27,000  Level Washington Center
10:11AM 36.9547 -78.1572 25° Northeast 436 502 27,000  Level Washington Center
10:12AM 37.0836 -78.0861 24° Northeast 428 493 27,000  Level Washington Center
10:13AM 37.1911 -78.0244 25° Northeast 428 493 27,000 -240 Level Washington Center
10:14AM 37.2989 -77.9650 24° Northeast 422 486 26,600 -1,200 Descending Washington Center
10:15AM 37.4064 -77.9006 25° Northeast 422 486 24,600 -8,280 Descending Washington Center
10:16AM 37.5097 -77.8408 25° Northeast 411 473 10,000 -1,680 Descending Washington Center
10:17AM 37.6089 -77.7833 25° Northeast 399 459 21,300 4,560 Climbing Washington Center
10:18AM 37.7081 -77.7258 25° Northeast 388 447 19,200 -1,920 Descending Washington Center
10:19AM 37.8008 -77.6706 25° Northeast 383 441 17,400 -1,860 Descending Washington Center
10:20AM 37.8933 -77.6181 24° Northeast 371 427 15,600 -1,860 Descending Washington Center
10:21AM 37.9797 -77.5622 27° Northeast 355 409 13,800 -1,860 Descending Washington Center
10:22AM 38.0556 -77.5272 20° North 333 383 11,900 -1,860 Descending Washington Center
10:23AM 38.1419 -77.4742 26° Northeast 328 377 10,100 -960 Descending Washington Center
10:24AM 38.2133 -77.4283 27° Northeast 309 356 10,100 -720 Level Washington Center
10:25AM 38.2908 -77.4092 11° North 290 334 8,800 -1,260 Descending Washington Center
10:26AM 38.3681 -77.4003 North 284 327 7,600 -1,140 Descending Washington Center
10:27AM 38.4433 -77.3864 North 278 320 6,600 -1,020 Descending Washington Center
10:28AM 38.5186 -77.3775 North 273 314 5,600 -840 Descending Washington Center
10:29AM 38.5917 -77.3661 North 273 314 5,000 -720 Descending Washington Center
10:30AM 38.6333 -77.3667 359° North 266 306 4,500 -720 Descending Potomac TRACON
10:31AM 38.7167 -77.3500 North 261 300 3,900 -300 Descending Potomac TRACON
10:32AM 38.7833 -77.3500 360° North 264 304 4,000  Climbing Potomac TRACON
10:33AM 38.8500 -77.3500 360° North 264 304 4,000 -300 Level Potomac TRACON
10:34AM 38.9333 -77.3500 360° North 262 302 3,500 -540 Descending Potomac TRACON
10:35AM 38.9833 -77.3500 360° North 247 284 3,000 -480 Descending Potomac TRACON
10:36AM 39.0667 -77.3500 360° North 222 255 2,600 -420 Descending Potomac TRACON